sensor_id;sensor_type;location;lat;lon;timestamp;temperature;humidity
65536;DHT22;52145;49.342;9.116;2022-11-20T09:22:24;7.70;99.90
65536;DHT22;52145;49.342;9.116;2022-11-20T09:29:35;7.90;99.90
65536;DHT22;52145;49.342;9.116;2022-11-20T09:32:00;7.90;99.90
65536;DHT22;52145;49.342;9.116;2022-11-20T11:15:38;8.20;99.90
65536;DHT22;52145;49.342;9.116;2022-11-20T11:18:04;8.30;99.90
65536;DHT22;52145;49.342;9.116;2022-11-20T11:20:30;8.40;99.90
65536;DHT22;52145;49.342;9.116;2022-11-20T11:22:58;8.50;99.90
65536;DHT22;52145;49.342;9.116;2022-11-20T11:25:35;8.50;99.90
65536;DHT22;52145;49.342;9.116;2022-11-20T11:30:44;8.60;99.90
65536;DHT22;52145;49.342;9.116;2022-11-20T11:33:18;8.60;99.90
65536;DHT22;52145;49.342;9.116;2022-11-20T11:36:01;8.80;99.90
65536;DHT22;52145;49.342;9.116;2022-11-20T11:38:39;8.70;99.90
65536;DHT22;52145;49.342;9.116;2022-11-20T11:48:12;8.50;99.90
65536;DHT22;52145;49.342;9.116;2022-11-20T11:50:38;8.50;99.90
65536;DHT22;52145;49.342;9.116;2022-11-20T11:53:16;8.70;99.90
65536;DHT22;52145;49.342;9.116;2022-11-20T11:55:43;9.00;99.90
65536;DHT22;52145;49.342;9.116;2022-11-20T12:03:59;10.20;99.90
65536;DHT22;52145;49.342;9.116;2022-11-20T12:06:27;9.60;99.90
65536;DHT22;52145;49.342;9.116;2022-11-20T12:11:47;9.80;99.90
65536;DHT22;52145;49.342;9.116;2022-11-20T12:14:33;10.60;99.90
65536;DHT22;52145;49.342;9.116;2022-11-20T12:17:00;10.70;99.90
65536;DHT22;52145;49.342;9.116;2022-11-20T12:19:31;10.10;99.90
65536;DHT22;52145;49.342;9.116;2022-11-20T12:22:14;9.80;99.90
65536;DHT22;52145;49.342;9.116;2022-11-20T12:27:51;9.40;99.90
65536;DHT22;52145;49.342;9.116;2022-11-20T12:30:22;9.40;99.90
65536;DHT22;52145;49.342;9.116;2022-11-20T12:38:05;9.50;99.90
65536;DHT22;52145;49.342;9.116;2022-11-20T12:40:48;9.40;99.90
65536;DHT22;52145;49.342;9.116;2022-11-20T12:43:28;9.20;99.90
65536;DHT22;52145;49.342;9.116;2022-11-20T12:46:18;9.30;99.90
65536;DHT22;52145;49.342;9.116;2022-11-20T13:19:12;9.10;99.90
65536;DHT22;52145;49.342;9.116;2022-11-20T13:21:43;9.30;99.90
65536;DHT22;52145;49.342;9.116;2022-11-20T13:29:34;10.40;99.90
65536;DHT22;52145;49.342;9.116;2022-11-20T13:32:17;10.10;99.90
65536;DHT22;52145;49.342;9.116;2022-11-20T13:35:03;9.80;99.90
65536;DHT22;52145;49.342;9.116;2022-11-20T13:37:32;9.80;99.90
65536;DHT22;52145;49.342;9.116;2022-11-20T13:40:24;10.00;99.90
65536;DHT22;52145;49.342;9.116;2022-11-20T13:45:34;10.20;99.90
65536;DHT22;52145;49.342;9.116;2022-11-20T13:48:04;10.10;99.90
65536;DHT22;52145;49.342;9.116;2022-11-20T13:53:15;10.10;99.90
65536;DHT22;52145;49.342;9.116;2022-11-20T13:55:48;10.00;99.90
65536;DHT22;52145;49.342;9.116;2022-11-20T13:58:29;9.90;99.90
65536;DHT22;52145;49.342;9.116;2022-11-20T14:01:20;9.80;99.90
65536;DHT22;52145;49.342;9.116;2022-11-20T14:03:47;9.90;99.90
65536;DHT22;52145;49.342;9.116;2022-11-20T14:06:34;9.90;99.90
65536;DHT22;52145;49.342;9.116;2022-11-20T14:09:03;9.90;99.90
65536;DHT22;52145;49.342;9.116;2022-11-20T14:11:30;10.10;99.90
65536;DHT22;52145;49.342;9.116;2022-11-20T14:16:26;10.30;99.90
65536;DHT22;52145;49.342;9.116;2022-11-20T14:18:53;10.40;99.90
65536;DHT22;52145;49.342;9.116;2022-11-20T14:21:29;10.30;99.90
65536;DHT22;52145;49.342;9.116;2022-11-20T14:24:05;10.10;99.90
65536;DHT22;52145;49.342;9.116;2022-11-20T14:26:30;10.30;99.90
65536;DHT22;52145;49.342;9.116;2022-11-20T14:28:57;10.10;99.90
65536;DHT22;52145;49.342;9.116;2022-11-20T14:31:25;10.20;99.90
65536;DHT22;52145;49.342;9.116;2022-11-20T14:33:52;10.10;99.90
65536;DHT22;52145;49.342;9.116;2022-11-20T14:36:20;10.00;99.90
65536;DHT22;52145;49.342;9.116;2022-11-20T14:38:47;9.80;99.90
65536;DHT22;52145;49.342;9.116;2022-11-20T14:41:23;9.70;99.90
65536;DHT22;52145;49.342;9.116;2022-11-20T14:43:59;9.60;99.90
65536;DHT22;52145;49.342;9.116;2022-11-20T14:46:25;9.50;99.90
65536;DHT22;52145;49.342;9.116;2022-11-20T14:48:55;9.50;99.90
65536;DHT22;52145;49.342;9.116;2022-11-20T14:51:40;9.50;99.90
65536;DHT22;52145;49.342;9.116;2022-11-20T14:54:18;9.40;99.90
65536;DHT22;52145;49.342;9.116;2022-11-20T14:56:59;9.30;99.90
65536;DHT22;52145;49.342;9.116;2022-11-20T14:59:27;9.30;99.90
65536;DHT22;52145;49.342;9.116;2022-11-20T15:02:03;9.20;99.90
65536;DHT22;52145;49.342;9.116;2022-11-20T15:04:29;9.20;99.90
65536;DHT22;52145;49.342;9.116;2022-11-20T15:06:57;9.10;99.90
65536;DHT22;52145;49.342;9.116;2022-11-20T15:09:23;9.00;99.90
65536;DHT22;52145;49.342;9.116;2022-11-20T15:12:00;8.90;99.90
65536;DHT22;52145;49.342;9.116;2022-11-20T15:14:27;8.80;99.90
65536;DHT22;52145;49.342;9.116;2022-11-20T15:16:54;8.80;99.90
65536;DHT22;52145;49.342;9.116;2022-11-20T15:19:25;8.70;99.90
65536;DHT22;52145;49.342;9.116;2022-11-20T15:21:51;8.60;99.90
65536;DHT22;52145;49.342;9.116;2022-11-20T15:24:17;8.40;99.90
65536;DHT22;52145;49.342;9.116;2022-11-20T15:26:43;8.30;99.90
65536;DHT22;52145;49.342;9.116;2022-11-20T15:29:14;8.20;99.90
65536;DHT22;52145;49.342;9.116;2022-11-20T15:31:40;8.20;99.90
